KBRY

Samuels Field Airport

Bardstown, Kentucky, USA
METAR KBRY 210415Z AUTO 00000KT 10SM SCT032 BKN041 BKN046 08/04 A3012 RMK AO1
Observed Flight Rules
Jan-21 @ 04:15 UTC (30 minutes ago) Visual Flight Rules
Wind Visibility Clouds
Calm 10 miles
  • Scattered at 3,200' AGL
  • Broken at 4,100' AGL
  • Broken at 4,600' AGL
Temperatures Readings
Current 8°C / 46°F
Dewpoint 4°C / 39°F
Humidity 76%
Altimeter 30.12" Hg
Pressure 1020 hPa
METAR KBRY 210415Z AUTO 00000KT 10SM SCT032 BKN041 BKN046 08/04 A3012 RMK AO1
Observed Flight Rules
Jan-21 @ 04:15 UTC
(30 minutes ago)
VFR
Wind Visibility
Calm 10 miles
Clouds
  • Scattered at 3,200' AGL
  • Broken at 4,100' AGL
  • Broken at 4,600' AGL
Temperature Dewpoint
8°C / 46°F 4°C / 39°F
Humidity Altimeter Pressure
76% 30.12" Hg 1020 hPa